createdAt,value
2023-03-21T00:00:29.519Z,6.80
2023-03-21T00:02:55.985Z,8.30
2023-03-21T00:05:22.758Z,8.73
2023-03-21T00:07:49.329Z,6.43
2023-03-21T00:10:23.981Z,7.97
2023-03-21T00:12:58.464Z,7.47
2023-03-21T00:15:39.291Z,7.83
2023-03-21T00:18:11.870Z,7.00
2023-03-21T00:20:38.932Z,8.20
2023-03-21T00:23:05.680Z,7.90
2023-03-21T00:25:33.019Z,5.77
2023-03-21T00:28:07.777Z,5.83
2023-03-21T00:30:35.379Z,6.30
2023-03-21T00:33:08.959Z,7.00
2023-03-21T00:36:05.795Z,7.87
2023-03-21T00:38:34.169Z,6.43
2023-03-21T00:41:04.660Z,9.90
2023-03-21T00:43:31.300Z,6.00
2023-03-21T00:45:58.913Z,5.70
2023-03-21T00:48:26.924Z,6.47
2023-03-21T00:50:55.532Z,5.97
2023-03-21T00:53:21.955Z,6.70
2023-03-21T00:55:48.841Z,9.13
2023-03-21T00:58:16.274Z,9.70
2023-03-21T01:00:44.375Z,12.80
2023-03-21T01:03:23.571Z,11.47
2023-03-21T01:06:07.000Z,15.40
2023-03-21T01:08:55.007Z,14.23
2023-03-21T01:11:24.780Z,8.83
2023-03-21T01:13:57.872Z,12.40
2023-03-21T01:16:31.435Z,11.33
2023-03-21T01:18:59.534Z,9.03
2023-03-21T01:21:26.300Z,7.60
2023-03-21T01:23:52.743Z,5.93
2023-03-21T01:26:19.496Z,6.37
2023-03-21T01:28:45.976Z,6.17
2023-03-21T01:31:14.639Z,4.90
2023-03-21T01:33:41.927Z,5.00
2023-03-21T01:36:14.350Z,5.10
2023-03-21T01:38:42.751Z,8.13
2023-03-21T01:41:47.270Z,3.77
2023-03-21T01:44:19.872Z,6.90
2023-03-21T01:47:09.731Z,11.17
2023-03-21T01:49:50.910Z,7.20
2023-03-21T01:52:38.088Z,5.17
2023-03-21T01:55:14.313Z,5.40
2023-03-21T01:58:05.492Z,5.20
2023-03-21T02:00:47.094Z,6.83
2023-03-21T02:03:35.669Z,4.43
2023-03-21T02:06:24.496Z,5.53
2023-03-21T02:08:55.465Z,3.37
2023-03-21T02:11:23.729Z,5.07
2023-03-21T02:13:55.853Z,5.30
2023-03-21T02:16:48.174Z,5.10
2023-03-21T02:19:31.987Z,7.27
2023-03-21T02:22:26.920Z,4.10
2023-03-21T02:25:25.206Z,4.73
2023-03-21T02:28:04.734Z,4.03
2023-03-21T02:30:53.255Z,4.37
2023-03-21T02:33:48.538Z,4.33
2023-03-21T02:36:44.799Z,5.57
2023-03-21T02:39:19.881Z,2.93
2023-03-21T02:42:04.802Z,3.73
2023-03-21T02:44:49.292Z,5.37
2023-03-21T02:47:37.434Z,3.07
2023-03-21T02:50:17.937Z,5.57
2023-03-21T02:52:48.152Z,5.60
2023-03-21T02:55:19.998Z,3.87
2023-03-21T02:57:56.501Z,6.90
2023-03-21T03:00:27.523Z,3.90
2023-03-21T03:03:08.184Z,3.40
2023-03-21T03:05:41.206Z,5.83
2023-03-21T03:09:15.702Z,4.87
2023-03-21T03:11:44.641Z,4.83
2023-03-21T03:14:38.480Z,4.80
2023-03-21T03:17:28.425Z,4.30
2023-03-21T03:20:16.624Z,5.17
2023-03-21T03:22:52.677Z,5.47
2023-03-21T03:25:36.079Z,6.17
2023-03-21T03:28:09.371Z,4.63
2023-03-21T03:30:43.374Z,5.50
2023-03-21T03:33:17.884Z,6.37
2023-03-21T03:35:53.078Z,6.43
2023-03-21T03:38:31.707Z,3.83
2023-03-21T03:41:08.013Z,7.20
2023-03-21T03:43:53.904Z,6.77
2023-03-21T03:46:33.229Z,5.40
2023-03-21T03:49:10.745Z,3.87
2023-03-21T03:51:54.801Z,2.93
2023-03-21T03:54:47.451Z,4.97
2023-03-21T03:57:16.076Z,5.13
2023-03-21T03:59:44.422Z,6.57
2023-03-21T04:02:14.737Z,6.00
2023-03-21T04:04:41.980Z,4.87
2023-03-21T04:07:09.024Z,4.37
2023-03-21T04:09:44.185Z,4.83
2023-03-21T04:12:14.080Z,5.40
2023-03-21T04:14:46.008Z,6.07
2023-03-21T04:17:18.624Z,5.33
2023-03-21T04:19:46.236Z,6.13
2023-03-21T04:22:13.447Z,6.43
2023-03-21T04:24:42.857Z,5.17
2023-03-21T04:27:09.799Z,4.60
2023-03-21T04:29:41.228Z,4.40
2023-03-21T04:32:26.097Z,5.57
2023-03-21T04:35:02.330Z,4.87
2023-03-21T04:37:29.436Z,3.83
2023-03-21T04:39:55.932Z,3.27
2023-03-21T04:42:22.678Z,4.13
2023-03-21T04:44:49.443Z,7.70
2023-03-21T04:47:16.827Z,2.90
2023-03-21T04:49:43.488Z,4.00
2023-03-21T04:52:11.384Z,5.03
2023-03-21T04:54:37.826Z,5.63
2023-03-21T04:57:04.814Z,4.80
2023-03-21T04:59:31.641Z,6.73
2023-03-21T05:01:58.528Z,5.67
2023-03-21T05:04:26.826Z,5.47
2023-03-21T05:06:54.412Z,4.60
2023-03-21T05:09:22.170Z,4.43
2023-03-21T05:11:49.123Z,5.07
2023-03-21T05:14:20.565Z,3.53
2023-03-21T05:16:53.474Z,3.80
2023-03-21T05:19:34.833Z,7.23
2023-03-21T05:22:05.378Z,6.67
2023-03-21T05:24:33.111Z,6.30
2023-03-21T05:27:02.653Z,4.83
2023-03-21T05:29:33.354Z,6.23
2023-03-21T05:32:05.634Z,7.50
2023-03-21T05:34:32.064Z,5.10
2023-03-21T05:36:59.560Z,4.13
2023-03-21T05:39:35.573Z,4.27
2023-03-21T05:42:07.745Z,8.27
2023-03-21T05:44:34.524Z,7.63
2023-03-21T05:47:06.524Z,5.97
2023-03-21T05:49:44.213Z,6.73
2023-03-21T05:52:11.198Z,6.20
2023-03-21T05:54:38.000Z,5.17
2023-03-21T05:57:05.417Z,6.57
2023-03-21T05:59:50.976Z,6.70
2023-03-21T06:02:18.857Z,7.70
2023-03-21T06:04:46.695Z,8.80
2023-03-21T06:07:13.196Z,7.77
2023-03-21T06:09:41.022Z,6.13
2023-03-21T06:12:07.795Z,5.43
2023-03-21T06:14:57.076Z,8.33
2023-03-21T06:17:30.009Z,6.57
2023-03-21T06:20:02.867Z,3.97
2023-03-21T06:22:37.849Z,5.00
2023-03-21T06:25:07.399Z,4.83
2023-03-21T06:27:34.532Z,6.63
2023-03-21T06:30:01.644Z,4.30
2023-03-21T06:32:34.279Z,4.60
2023-03-21T06:35:08.545Z,6.50
2023-03-21T06:37:35.867Z,5.20
2023-03-21T06:40:05.031Z,6.57
2023-03-21T06:42:32.493Z,5.90
2023-03-21T06:45:06.576Z,3.83
2023-03-21T06:47:33.008Z,6.60
2023-03-21T06:50:00.745Z,5.33
2023-03-21T06:52:27.335Z,7.73
2023-03-21T06:54:53.879Z,3.93
2023-03-21T06:57:21.922Z,6.40
2023-03-21T06:59:49.497Z,4.60
2023-03-21T07:02:19.910Z,5.20
2023-03-21T07:05:01.630Z,4.07
2023-03-21T07:07:29.730Z,4.13
2023-03-21T07:09:56.431Z,5.10
2023-03-21T07:12:23.969Z,6.30
2023-03-21T07:15:06.886Z,6.80
2023-03-21T07:17:33.743Z,6.40
2023-03-21T07:20:00.588Z,7.87
2023-03-21T07:22:27.133Z,7.83
2023-03-21T07:25:04.469Z,8.07
2023-03-21T07:27:40.669Z,4.40
2023-03-21T07:30:08.305Z,4.10
2023-03-21T07:32:37.875Z,3.90
2023-03-21T07:35:06.873Z,5.87
2023-03-21T07:37:33.345Z,7.80
2023-03-21T07:40:00.196Z,3.80
2023-03-21T07:42:26.603Z,5.77
2023-03-21T07:44:59.147Z,5.50
2023-03-21T07:47:26.723Z,6.40
2023-03-21T07:49:53.206Z,5.83
2023-03-21T07:52:19.726Z,5.17
2023-03-21T07:54:46.235Z,6.07
2023-03-21T07:57:13.820Z,5.73
2023-03-21T07:59:40.371Z,4.83
2023-03-21T08:02:07.258Z,5.63
2023-03-21T08:04:35.038Z,5.53
2023-03-21T08:07:01.747Z,6.00
2023-03-21T08:09:30.135Z,6.63
2023-03-21T08:11:57.495Z,5.63
2023-03-21T08:14:23.953Z,7.13
2023-03-21T08:16:50.731Z,4.53
2023-03-21T08:19:20.635Z,4.67
2023-03-21T08:21:50.990Z,3.97
2023-03-21T08:24:17.501Z,7.13
2023-03-21T08:26:45.901Z,6.70
2023-03-21T08:29:13.739Z,4.60
2023-03-21T08:31:41.291Z,7.73
2023-03-21T08:34:08.021Z,4.10
2023-03-21T08:36:36.842Z,4.63
2023-03-21T08:39:05.501Z,4.87
2023-03-21T08:41:33.707Z,5.87
2023-03-21T08:44:00.243Z,3.27
2023-03-21T08:46:27.103Z,7.07
2023-03-21T08:48:54.449Z,5.20
2023-03-21T08:51:21.184Z,4.50
2023-03-21T08:53:50.856Z,6.23
2023-03-21T08:56:18.300Z,4.57
2023-03-21T08:58:45.339Z,3.90
2023-03-21T09:01:15.454Z,4.10
2023-03-21T09:03:42.788Z,2.67
2023-03-21T09:06:10.742Z,4.80
2023-03-21T09:08:38.247Z,2.87
2023-03-21T09:11:04.874Z,2.47
2023-03-21T09:13:31.270Z,1.77
2023-03-21T09:16:01.221Z,4.10
2023-03-21T09:18:39.037Z,2.73
2023-03-21T09:21:12.682Z,3.37
2023-03-21T09:23:40.110Z,2.13
2023-03-21T09:26:11.226Z,4.00
2023-03-21T09:28:39.145Z,3.90
2023-03-21T09:31:06.530Z,3.10
2023-03-21T09:33:33.190Z,4.93
2023-03-21T09:36:00.425Z,5.23
2023-03-21T09:38:30.414Z,3.57
2023-03-21T09:41:18.288Z,4.57
2023-03-21T09:44:15.616Z,2.77
2023-03-21T09:47:02.460Z,4.10
2023-03-21T09:49:43.543Z,3.83
2023-03-21T09:52:16.859Z,3.53
2023-03-21T09:54:44.675Z,3.27
2023-03-21T09:57:38.068Z,2.40
2023-03-21T10:00:15.814Z,4.10
2023-03-21T10:02:49.511Z,3.30
2023-03-21T10:05:27.102Z,2.30
2023-03-21T10:07:59.970Z,3.13
2023-03-21T10:10:37.398Z,4.07
2023-03-21T10:13:07.445Z,2.30
2023-03-21T10:15:33.880Z,2.53
2023-03-21T10:18:07.138Z,3.50
2023-03-21T10:20:38.334Z,1.73
2023-03-21T10:23:08.060Z,3.73
2023-03-21T10:25:38.077Z,1.83
2023-03-21T10:28:07.549Z,2.30
2023-03-21T10:30:44.370Z,2.63
2023-03-21T10:33:18.264Z,2.83
2023-03-21T10:35:49.397Z,3.30
2023-03-21T10:38:19.906Z,6.03
2023-03-21T10:40:46.677Z,2.65
2023-03-21T10:43:34.261Z,2.83
2023-03-21T10:46:13.410Z,2.40
2023-03-21T10:48:46.312Z,3.03
2023-03-21T10:51:19.204Z,1.93
2023-03-21T10:53:51.683Z,3.42
2023-03-21T10:56:18.905Z,3.78
2023-03-21T10:58:47.038Z,3.13
2023-03-21T11:01:26.015Z,2.53
2023-03-21T11:03:58.028Z,2.72
2023-03-21T11:06:46.877Z,2.47
2023-03-21T11:09:20.234Z,2.83
2023-03-21T11:12:10.918Z,2.58
2023-03-21T11:14:41.695Z,2.65
2023-03-21T11:17:17.019Z,3.58
2023-03-21T11:19:56.825Z,2.67
2023-03-21T11:22:27.278Z,1.98
2023-03-21T11:24:59.274Z,1.52
2023-03-21T11:27:31.107Z,1.98
2023-03-21T11:30:01.621Z,2.67
2023-03-21T11:32:36.052Z,1.70
2023-03-21T11:35:21.092Z,2.75
2023-03-21T11:37:55.190Z,2.58
2023-03-21T11:40:23.542Z,1.75
2023-03-21T11:42:58.817Z,2.00
2023-03-21T11:45:31.069Z,2.97
2023-03-21T11:48:00.233Z,1.83
2023-03-21T11:50:27.127Z,2.35
2023-03-21T11:53:28.081Z,2.40
2023-03-21T11:56:09.900Z,2.40
2023-03-21T11:58:47.016Z,2.03
2023-03-21T12:01:27.519Z,2.13
2023-03-21T12:04:07.299Z,2.35
2023-03-21T12:06:40.558Z,2.17
2023-03-21T12:09:25.786Z,1.20
2023-03-21T12:12:29.975Z,2.38
2023-03-21T12:15:17.683Z,2.00
2023-03-21T12:17:53.236Z,2.72
2023-03-21T12:20:56.622Z,1.88
2023-03-21T12:23:23.108Z,2.20
2023-03-21T12:26:29.368Z,2.15
2023-03-21T12:29:23.283Z,1.63
2023-03-21T12:32:08.100Z,1.45
2023-03-21T12:35:03.820Z,2.03
2023-03-21T12:37:45.209Z,2.28
2023-03-21T12:40:36.223Z,1.85
2023-03-21T12:43:24.351Z,1.45
2023-03-21T12:45:57.855Z,1.42
2023-03-21T12:48:28.292Z,3.28
2023-03-21T12:50:58.421Z,2.42
2023-03-21T12:53:53.115Z,2.10
2023-03-21T12:56:25.382Z,3.33
2023-03-21T12:58:57.844Z,2.20
2023-03-21T13:01:25.631Z,2.55
2023-03-21T13:04:07.101Z,2.38
2023-03-21T13:06:36.566Z,3.75
2023-03-21T13:09:13.267Z,4.75
2023-03-21T13:11:40.356Z,4.13
2023-03-21T13:14:29.946Z,4.00
2023-03-21T13:17:10.755Z,5.23
2023-03-21T13:19:47.303Z,3.75
2023-03-21T13:22:26.397Z,7.27
2023-03-21T13:25:19.386Z,5.15
2023-03-21T13:27:52.977Z,5.63
2023-03-21T13:30:22.871Z,5.30
2023-03-21T13:32:51.436Z,5.80
2023-03-21T13:35:38.341Z,4.50
2023-03-21T13:38:12.740Z,5.20
2023-03-21T13:40:49.187Z,5.03
2023-03-21T13:43:38.878Z,4.80
2023-03-21T13:46:07.381Z,5.63
2023-03-21T13:49:05.474Z,5.00
2023-03-21T13:51:31.855Z,6.30
2023-03-21T13:54:29.916Z,5.20
2023-03-21T13:57:01.240Z,7.27
2023-03-21T13:59:39.158Z,16.57
2023-03-21T14:02:28.775Z,13.77
2023-03-21T14:05:07.051Z,6.07
2023-03-21T14:07:47.428Z,5.17
2023-03-21T14:10:30.689Z,6.43
2023-03-21T14:12:57.395Z,6.17
2023-03-21T14:15:46.403Z,4.60
2023-03-21T14:18:28.038Z,6.80
2023-03-21T14:21:09.225Z,5.70
2023-03-21T14:23:38.612Z,4.90
2023-03-21T14:26:06.213Z,6.13
2023-03-21T14:28:33.561Z,4.37
2023-03-21T14:31:01.064Z,5.43
2023-03-21T14:33:32.794Z,5.73
2023-03-21T14:36:04.129Z,4.03
2023-03-21T14:38:37.164Z,4.47
2023-03-21T14:41:04.416Z,5.23
2023-03-21T14:43:33.987Z,4.93
2023-03-21T14:46:01.143Z,6.13
2023-03-21T14:48:34.811Z,5.23
2023-03-21T14:51:09.139Z,6.23
2023-03-21T14:53:41.006Z,4.53
2023-03-21T14:56:17.025Z,5.00
2023-03-21T14:58:46.235Z,4.47
2023-03-21T15:01:17.375Z,5.57
2023-03-21T15:03:46.199Z,4.83
2023-03-21T15:06:14.467Z,5.90
2023-03-21T15:08:54.884Z,3.67
2023-03-21T15:11:36.580Z,5.15
2023-03-21T15:14:06.821Z,2.63
2023-03-21T15:16:34.460Z,2.67
2023-03-21T15:19:02.196Z,6.03
2023-03-21T15:21:42.187Z,4.63
2023-03-21T15:24:20.929Z,2.70
2023-03-21T15:26:49.606Z,3.30
2023-03-21T15:29:17.650Z,2.93
2023-03-21T15:31:46.717Z,3.57
2023-03-21T15:34:42.577Z,2.70
2023-03-21T15:37:16.938Z,3.40
2023-03-21T15:39:43.649Z,3.20
2023-03-21T15:42:34.096Z,3.03
2023-03-21T15:45:02.578Z,1.90
2023-03-21T15:47:58.837Z,3.73
2023-03-21T15:50:29.547Z,2.70
2023-03-21T15:53:00.656Z,3.50
2023-03-21T15:55:42.598Z,1.50
2023-03-21T15:58:16.167Z,3.33
2023-03-21T16:00:57.428Z,2.13
2023-03-21T16:03:30.400Z,3.60
2023-03-21T16:06:04.281Z,4.47
2023-03-21T16:09:09.263Z,2.73
2023-03-21T16:11:47.763Z,4.23
2023-03-21T16:14:14.192Z,2.47
2023-03-21T16:16:40.820Z,2.50
2023-03-21T16:19:07.485Z,4.27
2023-03-21T16:21:35.249Z,3.70
2023-03-21T16:24:02.143Z,5.80
2023-03-21T16:26:35.750Z,5.37
2023-03-21T16:29:03.281Z,4.70
2023-03-21T16:31:33.027Z,4.57
2023-03-21T16:33:59.559Z,3.30
2023-03-21T16:36:29.473Z,11.77
2023-03-21T16:38:56.473Z,5.60
2023-03-21T16:41:25.395Z,3.37
2023-03-21T16:43:52.241Z,4.93
2023-03-21T16:46:24.729Z,4.50
2023-03-21T16:48:54.435Z,18.10
2023-03-21T16:51:33.297Z,11.17
2023-03-21T16:54:00.503Z,6.43
2023-03-21T16:56:31.058Z,4.40
2023-03-21T16:58:57.922Z,4.63
2023-03-21T17:01:29.959Z,4.63
2023-03-21T17:03:57.826Z,45.63
2023-03-21T17:06:27.598Z,306.43
2023-03-21T17:08:55.655Z,90.83
2023-03-21T17:11:23.831Z,25.20
2023-03-21T17:13:52.416Z,13.23
2023-03-21T17:16:25.459Z,28.60
2023-03-21T17:18:53.110Z,26.67
2023-03-21T17:21:21.903Z,39.73
2023-03-21T17:23:50.132Z,145.73
2023-03-21T17:26:21.070Z,534.83
2023-03-21T17:28:47.842Z,274.60
2023-03-21T17:31:16.742Z,499.70
2023-03-21T17:33:43.832Z,103.67
2023-03-21T17:36:24.623Z,177.00
2023-03-21T17:38:52.742Z,57.20
2023-03-21T17:41:20.497Z,68.27
2023-03-21T17:43:47.143Z,45.00
2023-03-21T17:46:16.561Z,10.33
2023-03-21T17:48:44.929Z,13.50
2023-03-21T17:51:14.752Z,5.17
2023-03-21T17:53:45.120Z,7.03
2023-03-21T17:56:17.619Z,6.80
2023-03-21T17:58:44.358Z,4.23
2023-03-21T18:01:10.910Z,3.93
2023-03-21T18:03:37.339Z,4.47
2023-03-21T18:06:04.583Z,2.73
2023-03-21T18:08:31.259Z,3.40
2023-03-21T18:10:58.080Z,5.77
2023-03-21T18:13:25.361Z,5.80
2023-03-21T18:15:52.883Z,3.00
2023-03-21T18:18:19.495Z,2.60
2023-03-21T18:20:52.153Z,3.47
2023-03-21T18:23:19.433Z,6.30
2023-03-21T18:25:46.215Z,8.33
2023-03-21T18:28:13.236Z,4.83
2023-03-21T18:31:05.196Z,5.30
2023-03-21T18:33:27.701Z,4.73
2023-03-21T18:35:58.944Z,5.20
2023-03-21T18:38:27.418Z,4.57
2023-03-21T18:40:54.527Z,14.43
2023-03-21T18:46:08.270Z,5.83
2023-03-21T18:48:35.668Z,9.07
2023-03-21T18:51:02.902Z,5.63
2023-03-21T18:53:29.825Z,8.47
2023-03-21T18:55:57.475Z,8.43
2023-03-21T18:58:24.744Z,6.27
2023-03-21T19:00:53.390Z,8.63
2023-03-21T19:03:34.272Z,7.60
2023-03-21T19:06:03.739Z,5.40
2023-03-21T19:08:30.772Z,4.63
2023-03-21T19:11:00.177Z,5.10
2023-03-21T19:13:28.174Z,5.33
2023-03-21T19:15:54.558Z,4.73
2023-03-21T19:21:08.150Z,5.50
2023-03-21T19:23:59.273Z,7.20
2023-03-21T19:26:22.069Z,9.37
2023-03-21T19:28:48.505Z,8.50
2023-03-21T19:31:14.964Z,5.63
2023-03-21T19:33:41.471Z,5.47
2023-03-21T19:36:17.995Z,4.70
2023-03-21T19:38:44.844Z,7.43
2023-03-21T19:41:11.308Z,8.70
2023-03-21T19:43:40.012Z,8.33
2023-03-21T19:46:06.893Z,6.27
2023-03-21T19:48:33.699Z,5.27
2023-03-21T19:51:36.411Z,8.57
2023-03-21T19:53:49.262Z,12.87
2023-03-21T19:56:22.466Z,6.07
2023-03-21T19:58:50.575Z,9.87
2023-03-21T20:01:17.144Z,10.17
2023-03-21T20:03:44.413Z,11.33
2023-03-21T20:06:11.630Z,12.07
2023-03-21T20:09:05.277Z,11.20
2023-03-21T20:11:24.543Z,9.47
2023-03-21T20:13:51.171Z,11.80
2023-03-21T20:16:18.401Z,9.47
2023-03-21T20:18:46.065Z,16.40
2023-03-21T20:21:17.737Z,14.43
2023-03-21T20:23:49.212Z,16.30
2023-03-21T20:26:16.763Z,18.30
2023-03-21T20:28:56.107Z,18.60
2023-03-21T20:31:26.229Z,14.30
2023-03-21T20:33:53.145Z,15.47
2023-03-21T20:39:08.705Z,21.90
2023-03-21T20:41:35.186Z,19.20
2023-03-21T20:46:48.313Z,17.50
2023-03-21T20:49:15.484Z,12.63
2023-03-21T20:54:30.048Z,12.17
2023-03-21T20:56:57.172Z,11.93
2023-03-21T20:59:27.605Z,11.07
2023-03-21T21:01:57.847Z,9.17
2023-03-21T21:04:44.259Z,11.47
2023-03-21T21:07:15.823Z,9.63
2023-03-21T21:09:43.825Z,9.97
2023-03-21T21:12:10.970Z,11.80
2023-03-21T21:14:38.271Z,13.23
2023-03-21T21:17:40.657Z,13.97
2023-03-21T21:19:56.378Z,11.13
2023-03-21T21:22:22.942Z,8.07
2023-03-21T21:24:49.375Z,10.50
2023-03-21T21:27:15.925Z,7.73
2023-03-21T21:29:43.248Z,6.53
2023-03-21T21:32:11.085Z,9.17
2023-03-21T21:34:37.576Z,12.03
2023-03-21T21:37:04.178Z,12.67
2023-03-21T21:39:35.103Z,13.17
2023-03-21T21:42:02.206Z,11.33
2023-03-21T21:44:28.684Z,8.07
2023-03-21T21:46:55.255Z,5.07
2023-03-21T21:49:21.736Z,5.83
2023-03-21T21:51:48.188Z,6.97
2023-03-21T21:54:18.060Z,5.67
2023-03-21T21:56:48.291Z,6.27
2023-03-21T21:59:18.518Z,6.03
2023-03-21T22:01:46.510Z,5.57
2023-03-21T22:04:14.453Z,5.87
2023-03-21T22:06:42.200Z,7.97
2023-03-21T22:09:09.448Z,5.50
2023-03-21T22:11:36.295Z,5.73
2023-03-21T22:14:03.550Z,5.37
2023-03-21T22:16:30.190Z,5.47
2023-03-21T22:18:56.811Z,8.03
2023-03-21T22:21:23.404Z,7.00
2023-03-21T22:23:49.894Z,10.87
2023-03-21T22:26:16.589Z,13.97
2023-03-21T22:28:43.575Z,15.77
2023-03-21T22:31:18.725Z,12.43
2023-03-21T22:33:45.700Z,11.97
2023-03-21T22:36:12.470Z,6.00
2023-03-21T22:38:38.993Z,7.67
2023-03-21T22:41:06.604Z,7.67
2023-03-21T22:43:34.228Z,5.53
2023-03-21T22:46:02.796Z,5.63
2023-03-21T22:48:32.826Z,8.50
2023-03-21T22:51:00.513Z,8.77
2023-03-21T22:53:26.969Z,7.77
2023-03-21T22:55:53.792Z,9.53
2023-03-21T22:58:20.689Z,8.47
2023-03-21T23:00:47.444Z,8.77
2023-03-21T23:03:16.531Z,10.03
2023-03-21T23:05:44.198Z,6.70
2023-03-21T23:08:11.514Z,7.90
2023-03-21T23:10:41.388Z,7.00
2023-03-21T23:13:08.040Z,5.57
2023-03-21T23:15:34.453Z,9.03
2023-03-21T23:18:01.063Z,6.67
2023-03-21T23:20:27.809Z,5.87
2023-03-21T23:22:54.279Z,7.60
2023-03-21T23:25:20.941Z,6.07
2023-03-21T23:27:48.000Z,6.90
2023-03-21T23:30:14.544Z,7.83
2023-03-21T23:32:41.423Z,7.83
2023-03-21T23:35:08.385Z,7.73
2023-03-21T23:37:34.928Z,8.87
2023-03-21T23:40:01.514Z,5.67
2023-03-21T23:42:29.071Z,7.67
2023-03-21T23:44:55.635Z,6.17
2023-03-21T23:47:22.110Z,4.57
2023-03-21T23:49:49.992Z,6.33
2023-03-21T23:52:16.421Z,6.27
2023-03-21T23:54:43.081Z,6.40
2023-03-21T23:57:10.324Z,5.97
2023-03-21T23:59:36.827Z,7.00
